createdAt,value
2023-03-31T00:00:58.043Z,13.20
2023-03-31T00:03:26.539Z,13.20
2023-03-31T00:05:59.062Z,13.30
2023-03-31T00:08:30.491Z,13.30
2023-03-31T00:11:01.202Z,13.20
2023-03-31T00:13:30.360Z,13.20
2023-03-31T00:15:59.483Z,13.20
2023-03-31T00:18:27.631Z,13.20
2023-03-31T00:21:02.586Z,13.20
2023-03-31T00:23:31.587Z,13.20
2023-03-31T00:25:59.531Z,13.20
2023-03-31T00:28:27.535Z,13.20
2023-03-31T00:31:00.868Z,13.10
2023-03-31T00:33:29.632Z,13.20
2023-03-31T00:36:02.035Z,13.10
2023-03-31T00:38:31.007Z,13.20
2023-03-31T00:40:59.445Z,13.10
2023-03-31T00:43:33.034Z,13.20
2023-03-31T00:46:15.616Z,13.20
2023-03-31T00:48:50.983Z,13.10
2023-03-31T00:51:23.352Z,13.20
2023-03-31T00:53:57.524Z,13.10
2023-03-31T00:56:27.523Z,13.10
2023-03-31T00:59:00.980Z,13.10
2023-03-31T01:01:30.532Z,13.10
2023-03-31T01:03:59.243Z,13.10
2023-03-31T01:06:30.807Z,13.10
2023-03-31T01:08:59.196Z,13.10
2023-03-31T01:11:30.853Z,13.10
2023-03-31T01:13:59.808Z,13.00
2023-03-31T01:16:27.843Z,13.00
2023-03-31T01:18:57.566Z,13.00
2023-03-31T01:22:14.131Z,13.00
2023-03-31T01:25:23.039Z,13.00
2023-03-31T01:27:57.905Z,13.00
2023-03-31T01:31:04.447Z,12.90
2023-03-31T01:34:24.313Z,13.00
2023-03-31T01:37:23.104Z,13.00
2023-03-31T01:40:19.552Z,13.00
2023-03-31T01:42:53.965Z,13.00
2023-03-31T01:45:31.904Z,13.00
2023-03-31T01:48:03.498Z,12.90
2023-03-31T01:50:39.261Z,12.90
2023-03-31T01:53:16.475Z,12.90
2023-03-31T01:55:54.213Z,12.90
2023-03-31T01:58:25.304Z,12.90
2023-03-31T02:01:01.914Z,12.80
2023-03-31T02:03:34.431Z,12.80
2023-03-31T02:06:08.656Z,12.90
2023-03-31T02:08:41.365Z,12.80
2023-03-31T02:11:11.827Z,12.80
2023-03-31T02:13:44.803Z,12.80
2023-03-31T02:16:18.905Z,12.80
2023-03-31T02:18:50.016Z,12.80
2023-03-31T02:21:18.675Z,12.80
2023-03-31T02:23:48.507Z,12.80
2023-03-31T02:26:23.976Z,12.80
2023-03-31T02:28:52.317Z,12.80
2023-03-31T02:31:28.374Z,12.80
2023-03-31T02:33:57.087Z,12.70
2023-03-31T02:36:26.050Z,12.70
2023-03-31T02:38:56.712Z,12.70
2023-03-31T02:41:26.168Z,12.70
2023-03-31T02:43:54.252Z,12.60
2023-03-31T02:46:25.805Z,12.60
2023-03-31T02:48:57.273Z,12.50
2023-03-31T02:52:04.755Z,12.50
2023-03-31T02:55:04.437Z,12.50
2023-03-31T02:57:59.441Z,12.40
2023-03-31T03:00:39.627Z,12.40
2023-03-31T03:03:21.635Z,12.40
2023-03-31T03:05:59.484Z,12.40
2023-03-31T03:09:01.833Z,12.40
2023-03-31T03:11:38.962Z,12.40
2023-03-31T03:14:15.742Z,12.40
2023-03-31T03:16:47.184Z,12.40
2023-03-31T03:19:21.855Z,12.40
2023-03-31T03:21:50.076Z,12.40
2023-03-31T03:24:18.973Z,12.40
2023-03-31T03:26:48.081Z,12.40
2023-03-31T03:29:17.431Z,12.40
2023-03-31T03:31:45.480Z,12.50
2023-03-31T03:34:13.676Z,12.40
2023-03-31T03:36:41.651Z,12.50
2023-03-31T03:39:09.661Z,12.50
2023-03-31T03:41:37.661Z,12.50
2023-03-31T03:44:06.249Z,12.50
2023-03-31T03:46:35.797Z,12.40
2023-03-31T03:49:03.826Z,12.50
2023-03-31T03:51:31.828Z,12.40
2023-03-31T03:53:59.865Z,12.40
2023-03-31T03:56:28.115Z,12.40
2023-03-31T03:58:56.143Z,12.40
2023-03-31T04:01:24.489Z,12.40
2023-03-31T04:03:53.814Z,12.40
2023-03-31T04:06:21.957Z,12.40
2023-03-31T04:08:49.938Z,12.40
2023-03-31T04:11:19.496Z,12.40
2023-03-31T04:13:48.681Z,12.40
2023-03-31T04:16:17.198Z,12.40
2023-03-31T04:18:45.304Z,12.50
2023-03-31T04:21:22.931Z,12.40
2023-03-31T04:23:58.626Z,12.50
2023-03-31T04:26:31.143Z,12.50
2023-03-31T04:29:00.348Z,12.50
2023-03-31T04:31:30.816Z,12.50
2023-03-31T04:34:02.272Z,12.40
2023-03-31T04:36:32.297Z,12.40
2023-03-31T04:39:01.093Z,12.40
2023-03-31T04:41:29.158Z,12.40
2023-03-31T04:43:57.334Z,12.30
2023-03-31T04:46:26.521Z,12.30
2023-03-31T04:48:54.649Z,12.30
2023-03-31T04:51:22.604Z,12.20
2023-03-31T04:53:51.979Z,12.20
2023-03-31T04:56:20.056Z,12.20
2023-03-31T04:58:48.033Z,12.20
2023-03-31T05:01:18.255Z,12.20
2023-03-31T05:03:47.970Z,12.20
2023-03-31T05:06:16.372Z,12.20
2023-03-31T05:08:45.028Z,12.20
2023-03-31T05:11:14.338Z,12.20
2023-03-31T05:13:42.442Z,12.10
2023-03-31T05:16:12.382Z,12.10
2023-03-31T05:18:40.463Z,12.10
2023-03-31T05:21:13.723Z,12.10
2023-03-31T05:23:42.026Z,12.20
2023-03-31T05:26:10.856Z,12.20
2023-03-31T05:28:40.376Z,12.20
2023-03-31T05:31:09.822Z,12.20
2023-03-31T05:33:40.330Z,12.20
2023-03-31T05:36:10.116Z,12.20
2023-03-31T05:38:38.828Z,12.20
2023-03-31T05:41:07.494Z,12.20
2023-03-31T05:43:35.532Z,12.20
2023-03-31T05:46:05.552Z,12.20
2023-03-31T05:48:33.986Z,12.30
2023-03-31T05:51:02.840Z,12.30
2023-03-31T05:53:31.586Z,12.20
2023-03-31T05:56:00.569Z,12.20
2023-03-31T05:58:28.697Z,12.30
2023-03-31T06:01:07.282Z,12.30
2023-03-31T06:03:36.138Z,12.30
2023-03-31T06:06:05.257Z,12.30
2023-03-31T06:08:33.599Z,12.20
2023-03-31T06:11:01.934Z,12.30
2023-03-31T06:13:29.894Z,12.30
2023-03-31T06:15:59.401Z,12.30
2023-03-31T06:18:31.610Z,12.30
2023-03-31T06:20:59.896Z,12.30
2023-03-31T06:23:28.321Z,12.30
2023-03-31T06:26:01.189Z,12.30
2023-03-31T06:28:29.702Z,12.40
2023-03-31T06:31:05.138Z,12.30
2023-03-31T06:33:35.506Z,12.30
2023-03-31T06:36:05.525Z,12.40
2023-03-31T06:38:34.592Z,12.40
2023-03-31T06:41:02.902Z,12.30
2023-03-31T06:43:31.041Z,12.40
2023-03-31T06:45:59.582Z,12.30
2023-03-31T06:48:28.749Z,12.30
2023-03-31T06:51:01.536Z,12.40
2023-03-31T06:53:30.061Z,12.40
2023-03-31T06:55:58.359Z,12.40
2023-03-31T06:58:29.083Z,12.40
2023-03-31T07:00:58.942Z,12.50
2023-03-31T07:03:27.215Z,12.50
2023-03-31T07:05:57.034Z,12.60
2023-03-31T07:08:26.014Z,12.60
2023-03-31T07:10:57.760Z,12.60
2023-03-31T07:13:26.484Z,12.80
2023-03-31T07:15:54.979Z,12.80
2023-03-31T07:18:26.228Z,12.90
2023-03-31T07:20:54.789Z,12.90
2023-03-31T07:23:24.151Z,12.90
2023-03-31T07:25:52.142Z,13.00
2023-03-31T07:28:20.119Z,13.00
2023-03-31T07:30:48.193Z,13.00
2023-03-31T07:33:16.334Z,13.00
2023-03-31T07:35:44.644Z,13.10
2023-03-31T07:38:13.933Z,13.10
2023-03-31T07:40:47.479Z,13.00
2023-03-31T07:43:21.131Z,13.00
2023-03-31T07:45:49.182Z,13.10
2023-03-31T07:48:17.250Z,13.10
2023-03-31T07:50:45.427Z,13.20
2023-03-31T07:53:21.305Z,13.20
2023-03-31T07:55:51.050Z,13.30
2023-03-31T07:58:19.071Z,13.40
2023-03-31T08:00:47.075Z,13.40
2023-03-31T08:03:15.157Z,13.50
2023-03-31T08:05:43.276Z,13.60
2023-03-31T08:08:11.301Z,13.70
2023-03-31T08:10:39.365Z,13.80
2023-03-31T08:13:08.743Z,13.80
2023-03-31T08:15:36.832Z,13.80
2023-03-31T08:18:05.054Z,13.80
2023-03-31T08:20:33.246Z,13.80
2023-03-31T08:23:01.307Z,13.80
2023-03-31T08:25:29.446Z,13.80
2023-03-31T08:27:57.503Z,13.80
2023-03-31T08:30:26.905Z,13.90
2023-03-31T08:32:55.035Z,14.00
2023-03-31T08:35:23.102Z,14.20
2023-03-31T08:37:51.170Z,14.30
2023-03-31T08:40:22.911Z,14.40
2023-03-31T08:42:54.038Z,14.40
2023-03-31T08:45:25.523Z,14.50
2023-03-31T08:48:00.310Z,14.50
2023-03-31T08:50:31.735Z,14.50
2023-03-31T08:53:05.850Z,14.50
2023-03-31T08:55:41.788Z,14.60
2023-03-31T08:58:19.802Z,14.60
2023-03-31T09:00:55.600Z,14.60
2023-03-31T09:03:31.402Z,14.70
2023-03-31T09:06:02.815Z,14.80
2023-03-31T09:08:37.110Z,14.80
2023-03-31T09:11:12.719Z,14.90
2023-03-31T09:14:01.414Z,15.00
2023-03-31T09:16:34.829Z,15.20
2023-03-31T09:19:04.714Z,15.40
2023-03-31T09:21:36.139Z,15.50
2023-03-31T09:24:09.406Z,15.60
2023-03-31T09:26:41.300Z,15.70
2023-03-31T09:29:18.572Z,15.90
2023-03-31T09:31:47.861Z,16.00
2023-03-31T09:34:25.758Z,16.00
2023-03-31T09:36:53.809Z,16.00
2023-03-31T09:39:22.551Z,15.90
2023-03-31T09:41:53.764Z,15.80
2023-03-31T09:44:28.479Z,15.70
2023-03-31T09:46:57.587Z,15.60
2023-03-31T09:49:29.731Z,15.40
2023-03-31T09:52:05.667Z,15.20
2023-03-31T09:54:38.095Z,15.00
2023-03-31T09:57:16.050Z,15.00
2023-03-31T09:59:45.890Z,15.00
2023-03-31T10:02:34.998Z,15.00
2023-03-31T10:05:05.287Z,15.20
2023-03-31T10:07:35.179Z,15.50
2023-03-31T10:10:03.544Z,15.60
2023-03-31T10:12:32.672Z,15.60
2023-03-31T10:15:18.234Z,15.70
2023-03-31T10:17:54.424Z,15.80
2023-03-31T10:20:34.078Z,15.80
2023-03-31T10:23:08.078Z,15.70
2023-03-31T10:25:36.600Z,15.80
2023-03-31T10:28:04.979Z,15.80
2023-03-31T10:30:38.140Z,15.80
2023-03-31T10:33:22.658Z,16.00
2023-03-31T10:35:57.435Z,16.00
2023-03-31T10:38:28.800Z,15.90
2023-03-31T10:40:58.586Z,15.90
2023-03-31T10:43:29.870Z,15.90
2023-03-31T10:46:00.036Z,15.90
2023-03-31T10:48:30.646Z,16.00
2023-03-31T10:51:05.686Z,16.10
2023-03-31T10:53:42.055Z,16.20
2023-03-31T10:56:36.213Z,16.20
2023-03-31T10:59:20.536Z,16.20
2023-03-31T11:02:05.732Z,16.10
2023-03-31T11:04:47.818Z,16.00
2023-03-31T11:07:29.537Z,16.10
2023-03-31T11:10:08.432Z,16.20
2023-03-31T11:12:44.470Z,16.40
2023-03-31T11:15:22.833Z,16.20
2023-03-31T11:18:09.960Z,16.10
2023-03-31T11:20:42.964Z,16.10
2023-03-31T11:23:24.558Z,16.00
2023-03-31T11:25:58.857Z,16.00
2023-03-31T11:28:36.762Z,15.90
2023-03-31T11:31:28.601Z,15.90
2023-03-31T11:34:18.021Z,15.80
2023-03-31T11:37:11.834Z,15.80
2023-03-31T11:39:49.839Z,15.80
2023-03-31T11:42:21.819Z,15.70
2023-03-31T11:44:53.940Z,15.70
2023-03-31T11:47:25.522Z,15.60
2023-03-31T11:49:59.062Z,15.70
2023-03-31T11:52:30.549Z,15.70
2023-03-31T11:55:05.893Z,15.70
2023-03-31T11:57:39.272Z,15.80
2023-03-31T12:00:14.568Z,15.90
2023-03-31T12:02:50.288Z,15.80
2023-03-31T12:05:20.537Z,15.80
2023-03-31T12:07:54.653Z,15.90
2023-03-31T12:10:30.756Z,15.80
2023-03-31T12:13:03.560Z,15.80
2023-03-31T12:15:34.801Z,15.60
2023-03-31T12:18:10.886Z,15.50
2023-03-31T12:20:43.687Z,15.50
2023-03-31T12:23:16.340Z,15.60
2023-03-31T12:25:53.400Z,15.60
2023-03-31T12:28:22.464Z,15.60
2023-03-31T12:30:53.727Z,15.70
2023-03-31T12:33:28.136Z,15.90
2023-03-31T12:36:20.127Z,16.00
2023-03-31T12:38:58.931Z,16.10
2023-03-31T12:41:36.163Z,16.10
2023-03-31T12:44:17.775Z,16.00
2023-03-31T12:47:33.343Z,15.90
2023-03-31T12:50:17.492Z,15.90
2023-03-31T12:52:56.547Z,16.00
2023-03-31T12:55:34.834Z,16.00
2023-03-31T12:58:40.524Z,16.00
2023-03-31T13:01:14.651Z,16.10
2023-03-31T13:03:51.706Z,16.10
2023-03-31T13:06:52.449Z,16.00
2023-03-31T13:09:43.543Z,15.90
2023-03-31T13:12:16.882Z,15.70
2023-03-31T13:14:46.504Z,15.50
2023-03-31T13:17:24.872Z,15.40
2023-03-31T13:19:54.056Z,15.50
2023-03-31T13:22:34.884Z,15.50
2023-03-31T13:25:28.524Z,15.50
2023-03-31T13:27:57.319Z,15.50
2023-03-31T13:30:46.614Z,15.60
2023-03-31T13:33:20.617Z,15.60
2023-03-31T13:35:51.133Z,15.70
2023-03-31T13:38:33.018Z,15.80
2023-03-31T13:41:11.958Z,15.90
2023-03-31T13:44:06.107Z,15.90
2023-03-31T13:46:58.340Z,16.00
2023-03-31T13:49:48.465Z,15.90
2023-03-31T13:52:27.412Z,15.90
2023-03-31T13:55:16.735Z,15.90
2023-03-31T13:58:33.417Z,15.90
2023-03-31T14:01:34.483Z,16.00
2023-03-31T14:04:13.371Z,16.10
2023-03-31T14:06:48.584Z,16.20
2023-03-31T14:09:24.851Z,16.30
2023-03-31T14:11:52.960Z,16.40
2023-03-31T14:14:21.325Z,16.50
2023-03-31T14:16:52.698Z,16.50
2023-03-31T14:19:55.090Z,16.50
2023-03-31T14:22:45.473Z,16.50
2023-03-31T14:25:21.683Z,16.40
2023-03-31T14:28:01.041Z,16.20
2023-03-31T14:30:42.465Z,16.10
2023-03-31T14:33:27.409Z,16.00
2023-03-31T14:36:02.658Z,16.00
2023-03-31T14:38:32.269Z,16.00
2023-03-31T14:41:01.838Z,16.00
2023-03-31T14:43:33.923Z,16.00
2023-03-31T14:46:03.553Z,16.10
2023-03-31T14:48:34.821Z,16.10
2023-03-31T14:51:04.660Z,16.10
2023-03-31T14:53:37.342Z,16.10
2023-03-31T14:56:08.916Z,16.10
2023-03-31T14:58:40.881Z,16.00
2023-03-31T15:01:11.498Z,16.00
2023-03-31T15:03:42.603Z,16.00
2023-03-31T15:06:11.992Z,16.00
2023-03-31T15:08:42.131Z,15.90
2023-03-31T15:11:17.169Z,15.90
2023-03-31T15:14:00.641Z,15.80
2023-03-31T15:16:37.897Z,15.80
2023-03-31T15:19:13.384Z,15.80
2023-03-31T15:21:41.449Z,15.80
2023-03-31T15:24:13.211Z,15.70
2023-03-31T15:26:45.981Z,15.70
2023-03-31T15:29:20.797Z,15.70
2023-03-31T15:31:49.451Z,15.60
2023-03-31T15:34:24.658Z,15.60
2023-03-31T15:36:55.640Z,15.60
2023-03-31T15:39:27.227Z,15.50
2023-03-31T15:41:57.110Z,15.50
2023-03-31T15:44:40.250Z,15.50
2023-03-31T15:47:14.490Z,15.40
2023-03-31T15:49:53.645Z,15.30
2023-03-31T15:52:23.980Z,15.30
2023-03-31T15:54:53.609Z,15.30
2023-03-31T15:57:22.297Z,15.20
2023-03-31T15:59:56.428Z,15.10
2023-03-31T16:02:27.469Z,15.00
2023-03-31T16:04:58.754Z,14.80
2023-03-31T16:07:29.275Z,14.80
2023-03-31T16:10:02.620Z,14.70
2023-03-31T16:12:36.159Z,14.70
2023-03-31T16:15:07.292Z,14.70
2023-03-31T16:17:43.058Z,14.60
2023-03-31T16:20:18.837Z,14.60
2023-03-31T16:22:50.702Z,14.50
2023-03-31T16:25:22.665Z,14.40
2023-03-31T16:27:54.945Z,14.30
2023-03-31T16:30:34.350Z,14.10
2023-03-31T16:33:04.374Z,14.00
2023-03-31T16:35:34.230Z,13.90
2023-03-31T16:38:02.814Z,13.90
2023-03-31T16:40:36.603Z,13.90
2023-03-31T16:43:13.207Z,13.80
2023-03-31T16:45:41.729Z,13.80
2023-03-31T16:48:16.251Z,13.90
2023-03-31T16:50:46.486Z,13.90
2023-03-31T16:53:15.245Z,13.80
2023-03-31T16:55:44.712Z,13.90
2023-03-31T16:58:13.335Z,13.90
2023-03-31T17:00:42.004Z,13.90
2023-03-31T17:03:11.837Z,13.90
2023-03-31T17:05:41.308Z,13.90
2023-03-31T17:08:10.173Z,13.90
2023-03-31T17:10:38.765Z,13.90
2023-03-31T17:13:09.092Z,13.90
2023-03-31T17:15:37.769Z,13.90
2023-03-31T17:18:07.253Z,13.90
2023-03-31T17:20:35.768Z,13.90
2023-03-31T17:23:04.353Z,14.00
2023-03-31T17:25:32.923Z,14.00
2023-03-31T17:28:01.856Z,14.00
2023-03-31T17:30:31.753Z,13.90
2023-03-31T17:33:00.243Z,13.90
2023-03-31T17:35:28.681Z,14.00
2023-03-31T17:37:56.668Z,13.90
2023-03-31T17:40:26.884Z,13.90
2023-03-31T17:42:56.221Z,13.90
2023-03-31T17:45:25.220Z,13.90
2023-03-31T17:47:55.435Z,13.90
2023-03-31T17:50:23.895Z,13.90
2023-03-31T17:52:52.056Z,13.90
2023-03-31T17:55:20.623Z,13.90
2023-03-31T17:57:48.612Z,13.90
2023-03-31T18:00:17.387Z,13.90
2023-03-31T18:02:45.675Z,13.90
2023-03-31T18:05:30.791Z,13.90
2023-03-31T18:07:59.215Z,13.80
2023-03-31T18:10:27.301Z,13.80
2023-03-31T18:12:55.965Z,13.90
2023-03-31T18:15:23.962Z,13.80
2023-03-31T18:17:52.024Z,13.90
2023-03-31T18:20:21.634Z,13.90
2023-03-31T18:22:49.780Z,13.80
2023-03-31T18:25:17.944Z,13.80
2023-03-31T18:27:47.305Z,13.80
2023-03-31T18:30:15.632Z,13.80
2023-03-31T18:32:43.927Z,13.90
2023-03-31T18:35:12.124Z,13.80
2023-03-31T18:37:41.618Z,13.80
2023-03-31T18:40:10.890Z,13.80
2023-03-31T18:42:40.172Z,13.70
2023-03-31T18:45:09.237Z,13.60
2023-03-31T18:47:37.298Z,13.60
2023-03-31T18:50:05.863Z,13.40
2023-03-31T18:52:35.389Z,13.40
2023-03-31T18:55:05.422Z,13.30
2023-03-31T18:57:33.568Z,13.30
2023-03-31T19:00:01.684Z,13.30
2023-03-31T19:02:29.902Z,13.20
2023-03-31T19:04:57.966Z,13.20
2023-03-31T19:07:26.016Z,13.20
2023-03-31T19:09:53.985Z,13.20
2023-03-31T19:12:23.478Z,13.30
2023-03-31T19:14:52.424Z,13.20
2023-03-31T19:17:20.862Z,13.20
2023-03-31T19:19:49.668Z,13.20
2023-03-31T19:22:18.171Z,13.20
2023-03-31T19:24:46.164Z,13.20
2023-03-31T19:27:14.181Z,13.20
2023-03-31T19:29:43.536Z,13.20
2023-03-31T19:32:11.875Z,13.10
2023-03-31T19:34:39.928Z,13.10
2023-03-31T19:37:08.040Z,13.10
2023-03-31T19:39:37.050Z,13.00
2023-03-31T19:42:05.310Z,13.00
2023-03-31T19:44:33.332Z,12.90
2023-03-31T19:47:02.716Z,13.00
2023-03-31T19:49:30.849Z,12.90
2023-03-31T19:51:59.003Z,12.90
2023-03-31T19:54:27.419Z,12.90
2023-03-31T19:56:55.559Z,12.80
2023-03-31T19:59:23.674Z,12.80
2023-03-31T20:01:51.876Z,12.80
2023-03-31T20:04:21.890Z,12.80
2023-03-31T20:06:50.027Z,12.80
2023-03-31T20:09:18.290Z,12.90
2023-03-31T20:11:47.344Z,12.90
2023-03-31T20:14:15.508Z,12.90
2023-03-31T20:16:44.576Z,12.90
2023-03-31T20:19:16.215Z,12.90
2023-03-31T20:21:46.722Z,12.80
2023-03-31T20:24:17.932Z,12.90
2023-03-31T20:26:46.606Z,12.90
2023-03-31T20:29:14.844Z,12.90
2023-03-31T20:31:43.185Z,12.90
2023-03-31T20:34:14.947Z,12.90
2023-03-31T20:36:45.734Z,12.80
2023-03-31T20:39:15.340Z,12.80
2023-03-31T20:41:44.109Z,12.70
2023-03-31T20:44:15.235Z,12.80
2023-03-31T20:46:44.946Z,12.80
2023-03-31T20:49:13.482Z,12.80
2023-03-31T20:51:42.579Z,12.80
2023-03-31T20:54:12.106Z,12.80
2023-03-31T20:56:41.753Z,12.70
2023-03-31T20:59:12.268Z,12.70
2023-03-31T21:01:42.208Z,12.70
2023-03-31T21:04:13.269Z,12.80
2023-03-31T21:06:43.825Z,12.80
2023-03-31T21:09:13.498Z,12.80
2023-03-31T21:11:41.668Z,12.80
2023-03-31T21:14:13.689Z,12.80
2023-03-31T21:16:41.856Z,12.70
2023-03-31T21:19:10.101Z,12.70
2023-03-31T21:21:40.979Z,12.80
2023-03-31T21:24:10.111Z,12.80
2023-03-31T21:26:39.562Z,12.70
2023-03-31T21:29:07.783Z,12.80
2023-03-31T21:31:36.077Z,12.80
2023-03-31T21:34:04.535Z,12.80
2023-03-31T21:36:32.588Z,12.80
2023-03-31T21:39:00.890Z,12.80
2023-03-31T21:41:31.533Z,12.80
2023-03-31T21:44:02.673Z,12.80
2023-03-31T21:46:32.667Z,12.80
2023-03-31T21:49:01.595Z,12.70
2023-03-31T21:51:29.888Z,12.70
2023-03-31T21:53:58.016Z,12.70
2023-03-31T21:56:28.550Z,12.70
2023-03-31T21:59:04.077Z,12.70
2023-03-31T22:01:32.433Z,12.70
2023-03-31T22:04:00.843Z,12.70
2023-03-31T22:06:29.007Z,12.70
2023-03-31T22:08:57.020Z,12.70
2023-03-31T22:11:25.046Z,12.70
2023-03-31T22:13:53.048Z,12.70
2023-03-31T22:16:23.568Z,12.80
2023-03-31T22:18:52.849Z,12.70
2023-03-31T22:21:23.253Z,12.60
2023-03-31T22:23:52.958Z,12.60
2023-03-31T22:26:21.690Z,12.70
2023-03-31T22:28:50.776Z,12.70
2023-03-31T22:31:18.960Z,12.60
2023-03-31T22:33:49.061Z,12.50
2023-03-31T22:36:17.153Z,12.50
2023-03-31T22:38:45.210Z,12.40
2023-03-31T22:41:13.237Z,12.40
2023-03-31T22:43:43.147Z,12.40
2023-03-31T22:46:13.860Z,12.40
2023-03-31T22:48:41.985Z,12.40
2023-03-31T22:51:11.943Z,12.40
2023-03-31T22:53:40.084Z,12.40
2023-03-31T22:56:09.845Z,12.40
2023-03-31T22:58:38.255Z,12.40
2023-03-31T23:01:09.710Z,12.30
2023-03-31T23:03:37.930Z,12.40
2023-03-31T23:06:07.916Z,12.40
2023-03-31T23:08:38.076Z,12.30
2023-03-31T23:11:09.069Z,12.30
2023-03-31T23:13:37.059Z,12.20
2023-03-31T23:16:06.743Z,12.20
2023-03-31T23:18:35.744Z,12.20
2023-03-31T23:21:05.840Z,12.20
2023-03-31T23:23:34.043Z,12.20
2023-03-31T23:26:04.604Z,12.20
2023-03-31T23:28:34.238Z,12.20
2023-03-31T23:31:02.416Z,12.20
2023-03-31T23:33:30.974Z,12.20
2023-03-31T23:36:03.493Z,12.20
2023-03-31T23:38:32.385Z,12.20
2023-03-31T23:41:01.563Z,12.10
2023-03-31T23:43:31.093Z,12.20
2023-03-31T23:45:59.132Z,12.20
2023-03-31T23:48:27.322Z,12.10
2023-03-31T23:50:55.312Z,12.10
2023-03-31T23:53:23.348Z,12.10
2023-03-31T23:55:55.615Z,12.10
2023-03-31T23:58:23.677Z,12.10
